createdAt,value
2022-08-24T00:00:35.011Z,147725.13
2022-08-24T00:03:02.712Z,147711.63
2022-08-24T00:05:30.097Z,147632.22
2022-08-24T00:07:57.232Z,147642.00
2022-08-24T00:10:26.496Z,147685.97
2022-08-24T00:12:53.574Z,147651.75
2022-08-24T00:15:21.647Z,147621.22
2022-08-24T00:17:48.710Z,147673.78
2022-08-24T00:20:16.667Z,147682.34
2022-08-24T00:22:43.815Z,147659.13
2022-08-24T00:25:12.665Z,147659.13
2022-08-24T00:27:41.165Z,147646.88
2022-08-24T00:30:15.335Z,147644.41
2022-08-24T00:32:43.735Z,147602.88
2022-08-24T00:35:12.079Z,147600.47
2022-08-24T00:37:40.674Z,147576.00
2022-08-24T00:40:13.489Z,147611.44
2022-08-24T00:42:41.372Z,147560.16
2022-08-24T00:45:11.027Z,147561.34
2022-08-24T00:47:50.086Z,147558.94
2022-08-24T00:50:29.805Z,147568.69
2022-08-24T00:53:01.235Z,147516.16
2022-08-24T00:55:43.504Z,147551.59
2022-08-24T00:58:17.099Z,147563.81
2022-08-24T01:00:48.835Z,147505.19
2022-08-24T01:03:16.757Z,147475.84
2022-08-24T01:05:44.233Z,147562.56
2022-08-24T01:08:13.640Z,147566.25
2022-08-24T01:10:52.710Z,147574.78
2022-08-24T01:13:20.447Z,147547.91
2022-08-24T01:15:50.007Z,147479.47
2022-08-24T01:18:40.020Z,147462.41
2022-08-24T01:21:18.894Z,147532.06
2022-08-24T01:23:48.143Z,147475.84
2022-08-24T01:26:24.843Z,147525.91
2022-08-24T01:28:57.205Z,147501.50
2022-08-24T01:31:25.010Z,147483.13
2022-08-24T01:33:54.076Z,147525.91
2022-08-24T01:36:31.680Z,147499.09
2022-08-24T01:39:04.213Z,147508.84
2022-08-24T01:41:31.308Z,147514.94
2022-08-24T01:43:59.012Z,147501.50
2022-08-24T01:46:27.806Z,147514.94
2022-08-24T01:48:58.029Z,147514.94
2022-08-24T01:51:29.697Z,147505.19
2022-08-24T01:53:56.888Z,147488.03
2022-08-24T01:56:24.008Z,147448.97
2022-08-24T01:58:51.522Z,147456.28
2022-08-24T02:01:18.948Z,147452.59
2022-08-24T02:03:51.723Z,147352.50
2022-08-24T02:06:19.813Z,147444.09
2022-08-24T02:08:47.065Z,147431.88
2022-08-24T02:11:15.891Z,147420.88
2022-08-24T02:13:43.056Z,147395.22
2022-08-24T02:16:10.444Z,147417.22
2022-08-24T02:18:40.367Z,147407.47
2022-08-24T02:21:08.899Z,147397.66
2022-08-24T02:23:37.569Z,147392.75
2022-08-24T02:26:06.477Z,147387.88
2022-08-24T02:28:34.224Z,147376.91
2022-08-24T02:31:02.622Z,147335.41
2022-08-24T02:33:30.931Z,147381.78
2022-08-24T02:35:58.326Z,147370.81
2022-08-24T02:38:25.617Z,147380.59
2022-08-24T02:40:53.066Z,147318.31
2022-08-24T02:43:20.171Z,147365.94
2022-08-24T02:45:50.390Z,147265.84
2022-08-24T02:48:20.055Z,147342.72
2022-08-24T02:50:50.307Z,147309.75
2022-08-24T02:53:20.576Z,147326.84
2022-08-24T02:55:47.887Z,147293.91
2022-08-24T02:58:17.857Z,147292.69
2022-08-24T03:00:48.200Z,147212.06
2022-08-24T03:03:18.006Z,147287.78
2022-08-24T03:05:45.073Z,147321.97
2022-08-24T03:08:12.527Z,147241.34
2022-08-24T03:10:39.852Z,147248.75
2022-08-24T03:13:07.592Z,147256.06
2022-08-24T03:15:35.294Z,147307.34
2022-08-24T03:18:02.656Z,147290.22
2022-08-24T03:20:30.417Z,147274.38
2022-08-24T03:22:58.040Z,147302.47
2022-08-24T03:25:26.504Z,147267.03
2022-08-24T03:27:54.165Z,147264.59
2022-08-24T03:30:23.237Z,147293.91
2022-08-24T03:32:50.814Z,147331.72
2022-08-24T03:35:18.345Z,147319.50
2022-08-24T03:37:45.369Z,147326.84
2022-08-24T03:40:22.428Z,147356.13
2022-08-24T03:42:51.534Z,147317.09
2022-08-24T03:45:19.639Z,147309.75
2022-08-24T03:47:46.814Z,147350.03
2022-08-24T03:50:14.701Z,147370.81
2022-08-24T03:52:41.899Z,147341.50
2022-08-24T03:55:10.763Z,147375.72
2022-08-24T03:57:38.062Z,147304.88
2022-08-24T04:00:09.850Z,147317.09
2022-08-24T04:02:42.173Z,147251.16
2022-08-24T04:05:13.242Z,147270.72
2022-08-24T04:07:41.554Z,147212.06
2022-08-24T04:10:09.139Z,147174.25
2022-08-24T04:12:36.158Z,147256.06
2022-08-24T04:15:04.222Z,147208.41
2022-08-24T04:17:31.483Z,147192.56
2022-08-24T04:19:59.120Z,147232.81
2022-08-24T04:22:36.660Z,147229.19
2022-08-24T04:25:09.256Z,147177.88
2022-08-24T04:27:38.840Z,147213.28
2022-08-24T04:30:07.954Z,147209.63
2022-08-24T04:32:49.180Z,147159.56
2022-08-24T04:35:16.325Z,147224.28
2022-08-24T04:37:43.373Z,147196.19
2022-08-24T04:40:12.233Z,147214.50
2022-08-24T04:42:45.679Z,147213.28
2022-08-24T04:45:15.844Z,147185.22
2022-08-24T04:47:44.855Z,147197.44
2022-08-24T04:50:12.826Z,147192.56
2022-08-24T04:52:39.946Z,147251.16
2022-08-24T04:55:07.841Z,147194.97
2022-08-24T04:57:36.458Z,147236.47
2022-08-24T05:00:05.606Z,147231.59
2022-08-24T05:02:36.624Z,147221.84
2022-08-24T05:05:09.125Z,147206.00
2022-08-24T05:07:37.198Z,147229.19
2022-08-24T05:10:07.399Z,147165.72
2022-08-24T05:12:35.913Z,147182.81
2022-08-24T05:15:07.898Z,147207.19
2022-08-24T05:17:43.703Z,147219.41
2022-08-24T05:20:18.404Z,147224.28
2022-08-24T05:22:45.570Z,147287.78
2022-08-24T05:25:12.757Z,147311.00
2022-08-24T05:27:39.818Z,147330.53
2022-08-24T05:30:07.463Z,147336.63
2022-08-24T05:32:34.543Z,147380.59
2022-08-24T05:35:01.674Z,147408.66
2022-08-24T05:37:29.843Z,147412.34
2022-08-24T05:40:15.340Z,147445.28
2022-08-24T05:42:45.200Z,147448.97
2022-08-24T05:45:12.810Z,147446.50
2022-08-24T05:47:39.976Z,147552.78
2022-08-24T05:50:25.994Z,147622.47
2022-08-24T05:52:53.088Z,147610.22
2022-08-24T05:55:20.182Z,147627.34
2022-08-24T05:57:47.302Z,147639.53
2022-08-24T06:00:21.469Z,147610.22
2022-08-24T06:02:53.803Z,147690.84
2022-08-24T06:05:22.389Z,147665.22
2022-08-24T06:07:49.854Z,147721.44
2022-08-24T06:10:35.747Z,147766.69
2022-08-24T06:13:05.552Z,147721.44
2022-08-24T06:15:33.099Z,147782.53
2022-08-24T06:18:00.403Z,147811.91
2022-08-24T06:20:27.524Z,147825.34
2022-08-24T06:22:54.563Z,147837.53
2022-08-24T06:25:42.144Z,147844.91
2022-08-24T06:28:09.455Z,147935.38
2022-08-24T06:30:37.571Z,147945.22
2022-08-24T06:33:16.550Z,147985.56
2022-08-24T06:35:47.685Z,147994.13
2022-08-24T06:38:15.163Z,148018.56
2022-08-24T06:40:45.042Z,148045.50
2022-08-24T06:43:12.742Z,148104.19
2022-08-24T06:45:54.900Z,148136.00
2022-08-24T06:48:27.833Z,148182.53
2022-08-24T06:50:54.925Z,148221.66
2022-08-24T06:53:22.195Z,148273.06
2022-08-24T06:55:55.218Z,148308.56
2022-08-24T06:58:22.644Z,148346.53
2022-08-24T07:00:50.057Z,148363.69
2022-08-24T07:03:20.847Z,148417.53
2022-08-24T07:05:57.752Z,148415.09
2022-08-24T07:08:42.215Z,148491.00
2022-08-24T07:11:11.527Z,148532.63
2022-08-24T07:13:39.093Z,148571.84
2022-08-24T07:16:06.842Z,148593.91
2022-08-24T07:18:36.935Z,148563.31
2022-08-24T07:21:05.144Z,148625.75
2022-08-24T07:23:48.464Z,148645.31
2022-08-24T07:26:21.540Z,148662.47
2022-08-24T07:28:51.824Z,148685.75
2022-08-24T07:31:19.310Z,148699.22
2022-08-24T07:33:53.664Z,148753.19
2022-08-24T07:36:22.559Z,148770.38
2022-08-24T07:38:54.249Z,148774.00
2022-08-24T07:41:56.201Z,148835.28
2022-08-24T07:44:12.409Z,148873.28
2022-08-24T07:46:41.538Z,148890.44
2022-08-24T07:49:21.489Z,148900.25
2022-08-24T07:51:59.069Z,148903.94
2022-08-24T07:54:28.737Z,148952.97
2022-08-24T07:56:56.329Z,148971.34
2022-08-24T07:59:23.685Z,148987.31
2022-08-24T08:01:52.846Z,148992.22
2022-08-24T08:04:25.093Z,149002.00
2022-08-24T08:06:53.507Z,149057.19
2022-08-24T08:09:21.161Z,149074.34
2022-08-24T08:11:49.367Z,149100.13
2022-08-24T08:14:16.503Z,149109.91
2022-08-24T08:16:43.678Z,149125.88
2022-08-24T08:19:11.644Z,149114.88
2022-08-24T08:22:07.388Z,149170.06
2022-08-24T08:24:43.676Z,149216.66
2022-08-24T08:27:15.021Z,149246.06
2022-08-24T08:29:42.877Z,149259.59
2022-08-24T08:32:19.914Z,149233.78
2022-08-24T08:34:48.624Z,149302.53
2022-08-24T08:37:16.080Z,149313.59
2022-08-24T08:39:43.715Z,149366.31
2022-08-24T08:42:27.637Z,149389.63
2022-08-24T08:45:01.205Z,149425.28
2022-08-24T08:50:50.290Z,149440.00
2022-08-24T08:53:47.470Z,149464.56
2022-08-24T08:56:33.770Z,149481.72
2022-08-24T08:59:35.824Z,149469.47
2022-08-24T09:02:09.309Z,149527.13
2022-08-24T09:04:44.067Z,149521.00
2022-08-24T09:07:37.500Z,149560.25
2022-08-24T09:10:42.137Z,149587.31
2022-08-24T09:13:34.799Z,149606.94
2022-08-24T09:16:14.591Z,149631.53
2022-08-24T09:19:31.958Z,149635.22
2022-08-24T09:22:20.178Z,149672.03
2022-08-24T09:24:53.095Z,149685.50
2022-08-24T09:27:46.209Z,149695.38
2022-08-24T09:30:48.610Z,149672.03
2022-08-24T09:33:35.424Z,149727.28
2022-08-24T09:36:16.883Z,149767.81
2022-08-24T09:39:19.094Z,149803.44
2022-08-24T09:42:21.763Z,149767.81
2022-08-24T09:44:54.528Z,149810.84
2022-08-24T09:47:37.345Z,149799.75
2022-08-24T09:50:10.274Z,149888.22
2022-08-24T09:52:56.637Z,149855.03
2022-08-24T09:55:55.674Z,149887.00
2022-08-24T09:58:25.665Z,149905.44
2022-08-24T10:01:05.222Z,149906.63
2022-08-24T10:04:09.844Z,149933.69
2022-08-24T10:07:04.629Z,149938.59
2022-08-24T10:09:58.140Z,149921.41
2022-08-24T10:12:44.072Z,150000.03
2022-08-24T10:15:36.415Z,150063.97
2022-08-24T10:18:35.742Z,150100.84
2022-08-24T10:21:15.151Z,150017.22
2022-08-24T10:24:04.476Z,150076.25
2022-08-24T10:26:47.951Z,150092.25
2022-08-24T10:29:18.158Z,150059.06
2022-08-24T10:32:11.612Z,150075.03
2022-08-24T10:35:01.910Z,150110.66
2022-08-24T10:37:50.289Z,150152.44
2022-08-24T10:40:46.579Z,150175.78
2022-08-24T10:43:35.513Z,150179.50
2022-08-24T10:46:10.067Z,150221.31
2022-08-24T10:49:02.191Z,150172.09
2022-08-24T10:51:40.123Z,150075.03
2022-08-24T10:54:11.255Z,150164.72
2022-08-24T10:56:53.968Z,150110.66
2022-08-24T10:59:25.853Z,150129.09
2022-08-24T11:02:28.750Z,150120.50
2022-08-24T11:04:57.152Z,150213.94
2022-08-24T11:07:24.216Z,150229.94
2022-08-24T11:09:53.362Z,150270.47
2022-08-24T11:12:33.923Z,150272.94
2022-08-24T11:15:09.935Z,150204.09
2022-08-24T11:17:37.491Z,150275.38
2022-08-24T11:20:26.122Z,150259.41
2022-08-24T11:23:38.326Z,150347.97
2022-08-24T11:26:13.236Z,150418.03
2022-08-24T11:28:46.698Z,150354.16
2022-08-24T11:31:27.503Z,150383.63
2022-08-24T11:34:03.632Z,150398.38
2022-08-24T11:36:35.678Z,150411.91
2022-08-24T11:39:19.935Z,150422.97
2022-08-24T11:42:32.386Z,150447.59
2022-08-24T11:45:17.663Z,150479.59
2022-08-24T11:48:25.701Z,150454.94
2022-08-24T11:51:27.535Z,150399.59
2022-08-24T11:54:07.872Z,150303.69
2022-08-24T11:56:54.267Z,150275.38
2022-08-24T11:59:40.547Z,150245.91
2022-08-24T12:02:16.543Z,150243.47
2022-08-24T12:04:55.082Z,150295.09
2022-08-24T12:07:51.153Z,150253.28
2022-08-24T12:10:48.575Z,150236.06
2022-08-24T12:13:38.311Z,150201.63
2022-08-24T12:16:35.775Z,150210.25
2022-08-24T12:19:08.839Z,150250.81
2022-08-24T12:21:39.454Z,150300.00
2022-08-24T12:24:16.383Z,150405.78
2022-08-24T12:26:49.118Z,150414.38
2022-08-24T12:29:36.309Z,150511.59
2022-08-24T12:32:19.500Z,150570.59
2022-08-24T12:34:54.172Z,150627.25
2022-08-24T12:37:32.782Z,150622.34
2022-08-24T12:40:14.508Z,150664.16
2022-08-24T12:42:52.862Z,150678.91
2022-08-24T12:45:21.973Z,150726.88
2022-08-24T12:48:07.582Z,150723.22
2022-08-24T12:50:57.805Z,150720.75
2022-08-24T12:53:59.279Z,150772.44
2022-08-24T12:56:50.552Z,150770.03
2022-08-24T12:59:20.263Z,150765.09
2022-08-24T13:02:04.239Z,150749.09
2022-08-24T13:04:37.765Z,150864.75
2022-08-24T13:07:11.902Z,150925.09
2022-08-24T13:09:43.559Z,150962.03
2022-08-24T13:12:35.845Z,150949.75
2022-08-24T13:15:20.845Z,150969.44
2022-08-24T13:17:50.110Z,150969.44
2022-08-24T13:20:49.305Z,151011.34
2022-08-24T13:23:22.115Z,151031.03
2022-08-24T13:26:26.519Z,150968.22
2022-08-24T13:28:57.103Z,150947.28
2022-08-24T13:31:33.359Z,150966.94
2022-08-24T13:34:25.065Z,151028.59
2022-08-24T13:37:11.810Z,150973.13
2022-08-24T13:39:51.043Z,151003.88
2022-08-24T13:42:40.877Z,150934.94
2022-08-24T13:45:31.493Z,150962.03
2022-08-24T13:48:04.044Z,150954.66
2022-08-24T13:50:56.183Z,151008.84
2022-08-24T13:53:47.822Z,150963.25
2022-08-24T13:56:26.910Z,150965.72
2022-08-24T13:59:09.930Z,151011.34
2022-08-24T14:01:59.286Z,151026.09
2022-08-24T14:04:26.388Z,151005.16
2022-08-24T14:07:00.481Z,151003.88
2022-08-24T14:09:38.020Z,151017.47
2022-08-24T14:12:11.509Z,150949.75
2022-08-24T14:15:15.978Z,150984.19
2022-08-24T14:18:03.652Z,150880.81
2022-08-24T14:20:53.145Z,150861.06
2022-08-24T14:23:20.096Z,150878.34
2022-08-24T14:25:49.052Z,150873.38
2022-08-24T14:28:41.011Z,150899.28
2022-08-24T14:31:17.062Z,150869.66
2022-08-24T14:33:57.656Z,150875.84
2022-08-24T14:36:41.312Z,150861.06
2022-08-24T14:39:56.036Z,150907.84
2022-08-24T14:42:46.032Z,151012.56
2022-08-24T14:45:34.958Z,151026.09
2022-08-24T14:48:20.405Z,151040.88
2022-08-24T14:51:10.556Z,151042.13
2022-08-24T14:53:46.876Z,150917.75
2022-08-24T14:56:24.401Z,150934.94
2022-08-24T14:59:17.806Z,150922.66
2022-08-24T15:01:50.958Z,150787.22
2022-08-24T15:04:39.370Z,150836.44
2022-08-24T15:07:21.767Z,150794.63
2022-08-24T15:09:51.802Z,150783.56
2022-08-24T15:12:44.564Z,150798.31
2022-08-24T15:15:49.238Z,150819.22
2022-08-24T15:18:37.532Z,150819.22
2022-08-24T15:21:08.961Z,150691.22
2022-08-24T15:24:10.196Z,150681.34
2022-08-24T15:26:54.987Z,150637.09
2022-08-24T15:29:26.593Z,150601.34
2022-08-24T15:32:10.440Z,150580.47
2022-08-24T15:34:45.759Z,150484.53
2022-08-24T15:37:15.951Z,150570.59
2022-08-24T15:39:43.816Z,150570.59
2022-08-24T15:42:13.882Z,150570.59
2022-08-24T15:44:44.935Z,150541.09
2022-08-24T15:47:33.485Z,150553.41
2022-08-24T15:50:19.270Z,150600.13
2022-08-24T15:53:04.779Z,150637.09
2022-08-24T15:55:42.386Z,150777.38
2022-08-24T15:58:18.223Z,150947.28
2022-08-24T16:01:04.306Z,151011.34
2022-08-24T16:04:11.284Z,150912.81
2022-08-24T16:06:40.827Z,150861.06
2022-08-24T16:09:10.555Z,150792.13
2022-08-24T16:11:42.229Z,150841.38
2022-08-24T16:14:25.139Z,150845.06
2022-08-24T16:16:53.558Z,150819.22
2022-08-24T16:19:26.782Z,150755.22
2022-08-24T16:22:01.059Z,150777.38
2022-08-24T16:24:38.682Z,150747.84
2022-08-24T16:27:17.223Z,150693.66
2022-08-24T16:29:48.334Z,150755.22
2022-08-24T16:32:53.248Z,150710.91
2022-08-24T16:35:21.240Z,150693.66
2022-08-24T16:37:48.641Z,150709.69
2022-08-24T16:40:15.882Z,150804.44
2022-08-24T16:42:43.193Z,150854.91
2022-08-24T16:45:14.781Z,150837.66
2022-08-24T16:47:41.927Z,150920.19
2022-08-24T16:50:09.444Z,150979.28
2022-08-24T16:52:36.717Z,150874.59
2022-08-24T16:55:04.199Z,150783.56
2022-08-24T16:57:36.298Z,150677.69
2022-08-24T17:00:15.189Z,150616.16
2022-08-24T17:02:43.566Z,150580.47
2022-08-24T17:05:11.300Z,150528.78
2022-08-24T17:07:38.586Z,150491.88
2022-08-24T17:10:09.116Z,150395.94
2022-08-24T17:12:37.051Z,150471.00
2022-08-24T17:15:06.094Z,150482.03
2022-08-24T17:17:34.030Z,150386.06
2022-08-24T17:20:01.966Z,150786.00
2022-08-24T17:22:29.095Z,151214.56
2022-08-24T17:24:56.197Z,151319.31
2022-08-24T17:27:29.000Z,151153.00
2022-08-24T17:29:56.497Z,150942.34
2022-08-24T17:32:23.882Z,150799.53
2022-08-24T17:34:51.431Z,150717.03
2022-08-24T17:37:19.244Z,150637.09
2022-08-24T17:39:55.116Z,150541.09
2022-08-24T17:42:49.107Z,150484.53
2022-08-24T17:45:09.823Z,150432.84
2022-08-24T17:47:36.942Z,150377.50
2022-08-24T17:50:06.398Z,150354.16
2022-08-24T17:52:33.614Z,150311.03
2022-08-24T17:55:00.720Z,150255.72
2022-08-24T17:57:28.430Z,150254.50
2022-08-24T17:59:55.598Z,150216.41
2022-08-24T18:02:22.836Z,150201.63
2022-08-24T18:04:50.479Z,150169.66
2022-08-24T18:07:30.596Z,150145.06
2022-08-24T18:10:09.719Z,150125.41
2022-08-24T18:12:36.980Z,150095.94
2022-08-24T18:15:05.066Z,150024.59
2022-08-24T18:17:44.328Z,150032.00
2022-08-24T18:20:14.941Z,150007.38
2022-08-24T18:22:44.950Z,149955.78
2022-08-24T18:25:12.831Z,149831.69
2022-08-24T18:27:41.079Z,149901.72
2022-08-24T18:30:19.650Z,149825.56
2022-08-24T18:32:49.517Z,149830.47
2022-08-24T18:35:16.688Z,149799.75
2022-08-24T18:37:43.952Z,149815.75
2022-08-24T18:40:12.158Z,149771.50
2022-08-24T18:42:48.307Z,149740.81
2022-08-24T18:45:15.492Z,149643.75
2022-08-24T18:47:42.550Z,149699.00
2022-08-24T18:50:10.269Z,149665.88
2022-08-24T18:52:42.540Z,149620.44
2022-08-24T18:55:10.030Z,149642.56
2022-08-24T18:57:37.061Z,149621.72
2022-08-24T19:00:05.741Z,149597.13
2022-08-24T19:02:35.427Z,149589.78
2022-08-24T19:05:18.872Z,149570.06
2022-08-24T19:07:49.160Z,149481.72
2022-08-24T19:10:21.589Z,149554.13
2022-08-24T19:12:50.080Z,149518.53
2022-08-24T19:15:34.601Z,149436.31
2022-08-24T19:18:06.609Z,149437.56
2022-08-24T19:20:35.502Z,149361.41
2022-08-24T19:23:10.558Z,149417.91
2022-08-24T19:25:39.998Z,149381.03
2022-08-24T19:28:07.111Z,149378.63
2022-08-24T19:30:34.935Z,149351.63
2022-08-24T19:33:02.699Z,149368.81
2022-08-24T19:35:31.583Z,149278.00
2022-08-24T19:37:58.659Z,149312.34
2022-08-24T19:40:25.790Z,149280.47
2022-08-24T19:42:54.551Z,149204.38
2022-08-24T19:45:45.019Z,149265.72
2022-08-24T19:48:12.965Z,149217.88
2022-08-24T19:50:40.569Z,149230.16
2022-08-24T19:53:10.120Z,149211.75
2022-08-24T19:55:37.289Z,149167.59
2022-08-24T19:58:24.277Z,149184.75
2022-08-24T20:01:03.248Z,149150.41
2022-08-24T20:03:30.369Z,149135.69
2022-08-24T20:05:57.562Z,149109.91
2022-08-24T20:08:24.874Z,149098.91
2022-08-24T20:10:55.931Z,149084.19
2022-08-24T20:13:23.085Z,149040.00
2022-08-24T20:15:50.378Z,149051.06
2022-08-24T20:18:17.742Z,149014.28
2022-08-24T20:20:44.870Z,148989.72
2022-08-24T20:23:13.440Z,148927.25
2022-08-24T20:25:41.066Z,148929.69
2022-08-24T20:30:56.570Z,148950.53
2022-08-24T20:33:24.803Z,148965.25
2022-08-24T20:35:51.911Z,148923.56
2022-08-24T20:38:21.440Z,148949.31
2022-08-24T20:40:49.640Z,148881.84
2022-08-24T20:43:16.737Z,148874.47
2022-08-24T20:45:43.861Z,148856.09
2022-08-24T20:48:13.529Z,148865.91
2022-08-24T20:50:44.422Z,148859.78
2022-08-24T20:53:11.769Z,148819.34
2022-08-24T20:55:40.409Z,148845.09
2022-08-24T20:58:09.017Z,148771.56
2022-08-24T21:00:37.269Z,148829.13
2022-08-24T21:03:04.827Z,148736.03
2022-08-24T21:05:32.485Z,148816.91
2022-08-24T21:07:59.588Z,148812.00
2022-08-24T21:10:27.238Z,148781.38
2022-08-24T21:12:55.281Z,148832.81
2022-08-24T21:15:23.211Z,148766.69
2022-08-24T21:17:50.681Z,148841.41
2022-08-24T21:20:18.283Z,148809.53
2022-08-24T21:22:48.374Z,148820.59
2022-08-24T21:25:17.420Z,148794.84
2022-08-24T21:27:46.893Z,148763.00
2022-08-24T21:30:21.566Z,148716.41
2022-08-24T21:33:08.013Z,148693.13
2022-08-24T21:35:36.904Z,148721.28
2022-08-24T21:38:05.405Z,148677.19
2022-08-24T21:40:36.124Z,148657.59
2022-08-24T21:43:09.326Z,148652.69
2022-08-24T21:45:44.896Z,148562.06
2022-08-24T21:48:12.604Z,148586.56
2022-08-24T21:50:39.866Z,148619.63
2022-08-24T21:53:07.238Z,148586.56
2022-08-24T21:55:35.630Z,148579.22
2022-08-24T21:58:02.911Z,148574.31
2022-08-24T22:00:30.101Z,148547.38
2022-08-24T22:07:10.399Z,148552.25
2022-08-24T22:09:38.355Z,148488.53
2022-08-24T22:12:06.725Z,148525.25
2022-08-24T22:14:34.038Z,148528.94
2022-08-24T22:17:02.332Z,148538.75
2022-08-24T22:19:29.413Z,148548.56
2022-08-24T22:21:56.436Z,148535.06
2022-08-24T22:24:23.485Z,148509.38
2022-08-24T22:26:50.514Z,148491.00
2022-08-24T22:29:17.561Z,148446.91
2022-08-24T22:31:45.546Z,148504.47
2022-08-24T22:34:19.634Z,148487.31
2022-08-24T22:36:49.087Z,148503.22
2022-08-24T22:39:16.494Z,148417.53
2022-08-24T22:41:44.174Z,148423.66
2022-08-24T22:44:20.176Z,148466.50
2022-08-24T22:46:59.858Z,148481.22
2022-08-24T22:49:37.238Z,148454.28
2022-08-24T22:52:05.834Z,148421.22
2022-08-24T22:54:34.461Z,148489.78
2022-08-24T22:57:02.376Z,148520.38
2022-08-24T22:59:35.511Z,148476.31
2022-08-24T23:02:06.290Z,148455.50
2022-08-24T23:04:36.554Z,148439.59
2022-08-24T23:07:06.290Z,148429.75
2022-08-24T23:09:44.582Z,148415.09
2022-08-24T23:12:15.887Z,148397.97
2022-08-24T23:14:43.115Z,148396.72
2022-08-24T23:17:11.349Z,148375.94
2022-08-24T23:19:57.023Z,148322.03
2022-08-24T23:22:24.107Z,148205.78
2022-08-24T23:24:53.341Z,148320.81
2022-08-24T23:27:20.809Z,148287.78
2022-08-24T23:29:49.311Z,148299.97
2022-08-24T23:32:18.341Z,148273.06
2022-08-24T23:34:47.802Z,148253.50
2022-08-24T23:37:17.176Z,148255.97
2022-08-24T23:39:44.371Z,148221.66
2022-08-24T23:42:12.070Z,148232.72
2022-08-24T23:44:39.547Z,148220.47
2022-08-24T23:47:07.019Z,148214.34
2022-08-24T23:49:34.410Z,148191.13
2022-08-24T23:52:02.238Z,148197.22
2022-08-24T23:54:29.404Z,148138.44
2022-08-24T23:56:57.403Z,148151.94
2022-08-24T23:59:28.026Z,148175.19
